sensor_id;sensor_type;location;lat;lon;timestamp;temperature;humidity
13264;DHT22;6700;51.988;7.646;2022-10-16T00:01:18;12.70;99.90
13264;DHT22;6700;51.988;7.646;2022-10-16T00:03:47;12.70;99.90
13264;DHT22;6700;51.988;7.646;2022-10-16T00:06:15;12.70;99.90
13264;DHT22;6700;51.988;7.646;2022-10-16T00:08:42;12.70;99.90
13264;DHT22;6700;51.988;7.646;2022-10-16T00:11:14;12.70;99.90
13264;DHT22;6700;51.988;7.646;2022-10-16T00:13:42;12.80;99.90
13264;DHT22;6700;51.988;7.646;2022-10-16T00:16:10;12.80;99.90
13264;DHT22;6700;51.988;7.646;2022-10-16T00:18:38;12.80;99.90
13264;DHT22;6700;51.988;7.646;2022-10-16T00:21:08;12.80;99.90
13264;DHT22;6700;51.988;7.646;2022-10-16T00:23:35;12.80;99.90
13264;DHT22;6700;51.988;7.646;2022-10-16T00:26:09;12.80;99.90
13264;DHT22;6700;51.988;7.646;2022-10-16T00:28:36;12.80;99.90
13264;DHT22;6700;51.988;7.646;2022-10-16T00:31:05;12.80;99.90
13264;DHT22;6700;51.988;7.646;2022-10-16T00:33:33;12.80;99.90
13264;DHT22;6700;51.988;7.646;2022-10-16T00:36:01;12.80;99.90
13264;DHT22;6700;51.988;7.646;2022-10-16T00:38:28;12.80;99.90
13264;DHT22;6700;51.988;7.646;2022-10-16T00:40:55;12.80;99.90
13264;DHT22;6700;51.988;7.646;2022-10-16T00:43:47;12.80;99.90
13264;DHT22;6700;51.988;7.646;2022-10-16T00:48:57;12.80;99.90
13264;DHT22;6700;51.988;7.646;2022-10-16T00:51:30;12.70;99.90
13264;DHT22;6700;51.988;7.646;2022-10-16T00:53:58;12.70;99.90
13264;DHT22;6700;51.988;7.646;2022-10-16T00:56:25;12.70;99.90
13264;DHT22;6700;51.988;7.646;2022-10-16T00:58:52;12.70;99.90
13264;DHT22;6700;51.988;7.646;2022-10-16T01:01:19;12.70;99.90
13264;DHT22;6700;51.988;7.646;2022-10-16T01:03:46;12.70;99.90
13264;DHT22;6700;51.988;7.646;2022-10-16T01:09:30;12.60;99.90
13264;DHT22;6700;51.988;7.646;2022-10-16T01:15:08;12.50;99.90
13264;DHT22;6700;51.988;7.646;2022-10-16T01:17:53;12.50;99.90
13264;DHT22;6700;51.988;7.646;2022-10-16T01:28:47;12.40;99.90
13264;DHT22;6700;51.988;7.646;2022-10-16T01:31:19;12.40;99.90
13264;DHT22;6700;51.988;7.646;2022-10-16T01:33:59;12.40;99.90
13264;DHT22;6700;51.988;7.646;2022-10-16T01:36:34;12.40;99.90
13264;DHT22;6700;51.988;7.646;2022-10-16T01:39:03;12.40;99.90
13264;DHT22;6700;51.988;7.646;2022-10-16T01:41:46;12.40;99.90
13264;DHT22;6700;51.988;7.646;2022-10-16T01:44:19;12.40;99.90
13264;DHT22;6700;51.988;7.646;2022-10-16T01:46:50;12.40;99.90
13264;DHT22;6700;51.988;7.646;2022-10-16T01:49:20;12.40;99.90
13264;DHT22;6700;51.988;7.646;2022-10-16T01:51:50;12.40;99.90
13264;DHT22;6700;51.988;7.646;2022-10-16T01:54:19;12.40;99.90
13264;DHT22;6700;51.988;7.646;2022-10-16T01:56:48;12.40;99.90
13264;DHT22;6700;51.988;7.646;2022-10-16T01:59:19;12.40;99.90
13264;DHT22;6700;51.988;7.646;2022-10-16T02:01:50;12.40;99.90
13264;DHT22;6700;51.988;7.646;2022-10-16T02:04:28;12.40;99.90
13264;DHT22;6700;51.988;7.646;2022-10-16T02:06:55;12.30;99.90
13264;DHT22;6700;51.988;7.646;2022-10-16T02:09:22;12.30;99.90
13264;DHT22;6700;51.988;7.646;2022-10-16T02:11:51;12.30;99.90
13264;DHT22;6700;51.988;7.646;2022-10-16T02:14:20;12.30;99.90
13264;DHT22;6700;51.988;7.646;2022-10-16T02:16:48;12.30;99.90
13264;DHT22;6700;51.988;7.646;2022-10-16T02:19:17;12.30;99.90
13264;DHT22;6700;51.988;7.646;2022-10-16T02:21:56;12.30;99.90
13264;DHT22;6700;51.988;7.646;2022-10-16T02:27:32;12.30;99.90
13264;DHT22;6700;51.988;7.646;2022-10-16T02:30:09;12.30;99.90
13264;DHT22;6700;51.988;7.646;2022-10-16T02:32:40;12.30;99.90
13264;DHT22;6700;51.988;7.646;2022-10-16T02:35:09;12.30;99.90
13264;DHT22;6700;51.988;7.646;2022-10-16T02:37:37;12.30;99.90
13264;DHT22;6700;51.988;7.646;2022-10-16T02:40:05;12.30;99.90
13264;DHT22;6700;51.988;7.646;2022-10-16T02:42:38;12.30;99.90
13264;DHT22;6700;51.988;7.646;2022-10-16T02:45:07;12.30;99.90
13264;DHT22;6700;51.988;7.646;2022-10-16T02:47:34;12.30;99.90
13264;DHT22;6700;51.988;7.646;2022-10-16T02:50:01;12.30;99.90
13264;DHT22;6700;51.988;7.646;2022-10-16T02:52:27;12.20;99.90
13264;DHT22;6700;51.988;7.646;2022-10-16T02:54:55;12.20;99.90
13264;DHT22;6700;51.988;7.646;2022-10-16T02:57:21;12.20;99.90
13264;DHT22;6700;51.988;7.646;2022-10-16T02:59:48;12.20;99.90
13264;DHT22;6700;51.988;7.646;2022-10-16T03:02:15;12.20;99.90
13264;DHT22;6700;51.988;7.646;2022-10-16T03:04:42;12.20;99.90
13264;DHT22;6700;51.988;7.646;2022-10-16T03:07:09;12.20;99.90
13264;DHT22;6700;51.988;7.646;2022-10-16T03:09:35;12.20;99.90
13264;DHT22;6700;51.988;7.646;2022-10-16T03:12:02;12.20;99.90
13264;DHT22;6700;51.988;7.646;2022-10-16T03:14:29;12.20;99.90
13264;DHT22;6700;51.988;7.646;2022-10-16T03:16:56;12.20;99.90
13264;DHT22;6700;51.988;7.646;2022-10-16T03:19:24;12.20;99.90
13264;DHT22;6700;51.988;7.646;2022-10-16T03:21:50;12.20;99.90
13264;DHT22;6700;51.988;7.646;2022-10-16T03:24:17;12.30;99.90
13264;DHT22;6700;51.988;7.646;2022-10-16T03:26:44;12.30;99.90
13264;DHT22;6700;51.988;7.646;2022-10-16T03:29:11;12.30;99.90
13264;DHT22;6700;51.988;7.646;2022-10-16T03:31:38;12.30;99.90
13264;DHT22;6700;51.988;7.646;2022-10-16T03:34:04;12.30;99.90
13264;DHT22;6700;51.988;7.646;2022-10-16T03:36:31;12.30;99.90
13264;DHT22;6700;51.988;7.646;2022-10-16T03:38:58;12.30;99.90
13264;DHT22;6700;51.988;7.646;2022-10-16T03:41:25;12.30;99.90
13264;DHT22;6700;51.988;7.646;2022-10-16T03:43:51;12.30;99.90
13264;DHT22;6700;51.988;7.646;2022-10-16T03:46:18;12.30;99.90
13264;DHT22;6700;51.988;7.646;2022-10-16T03:48:45;12.30;99.90
13264;DHT22;6700;51.988;7.646;2022-10-16T03:51:12;12.30;99.90
13264;DHT22;6700;51.988;7.646;2022-10-16T03:53:38;12.20;99.90
13264;DHT22;6700;51.988;7.646;2022-10-16T03:56:05;12.30;99.90
13264;DHT22;6700;51.988;7.646;2022-10-16T03:58:32;12.20;99.90
13264;DHT22;6700;51.988;7.646;2022-10-16T04:00:59;12.20;99.90
13264;DHT22;6700;51.988;7.646;2022-10-16T04:03:26;12.20;99.90
13264;DHT22;6700;51.988;7.646;2022-10-16T04:05:53;12.20;99.90
13264;DHT22;6700;51.988;7.646;2022-10-16T04:08:20;12.10;99.90
13264;DHT22;6700;51.988;7.646;2022-10-16T04:10:47;12.10;99.90
13264;DHT22;6700;51.988;7.646;2022-10-16T04:13:14;12.10;99.90
13264;DHT22;6700;51.988;7.646;2022-10-16T04:15:40;12.10;99.90
13264;DHT22;6700;51.988;7.646;2022-10-16T04:18:07;12.10;99.90
13264;DHT22;6700;51.988;7.646;2022-10-16T04:20:34;12.10;99.90
13264;DHT22;6700;51.988;7.646;2022-10-16T04:23:01;12.10;99.90
13264;DHT22;6700;51.988;7.646;2022-10-16T04:25:28;12.20;99.90
13264;DHT22;6700;51.988;7.646;2022-10-16T04:27:55;12.20;99.90
13264;DHT22;6700;51.988;7.646;2022-10-16T04:30:22;12.20;99.90
13264;DHT22;6700;51.988;7.646;2022-10-16T04:32:50;12.20;99.90
13264;DHT22;6700;51.988;7.646;2022-10-16T04:35:18;12.20;99.90
13264;DHT22;6700;51.988;7.646;2022-10-16T04:37:45;12.20;99.90
13264;DHT22;6700;51.988;7.646;2022-10-16T04:40:13;12.20;99.90
13264;DHT22;6700;51.988;7.646;2022-10-16T04:42:39;12.20;99.90
13264;DHT22;6700;51.988;7.646;2022-10-16T04:45:07;12.20;99.90
13264;DHT22;6700;51.988;7.646;2022-10-16T04:47:40;12.20;99.90
13264;DHT22;6700;51.988;7.646;2022-10-16T04:50:07;12.20;99.90
13264;DHT22;6700;51.988;7.646;2022-10-16T04:52:34;12.20;99.90
13264;DHT22;6700;51.988;7.646;2022-10-16T04:55:06;12.20;99.90
13264;DHT22;6700;51.988;7.646;2022-10-16T04:57:33;12.20;99.90
13264;DHT22;6700;51.988;7.646;2022-10-16T05:00:00;12.20;99.90
13264;DHT22;6700;51.988;7.646;2022-10-16T05:02:27;12.30;99.90
13264;DHT22;6700;51.988;7.646;2022-10-16T05:04:54;12.20;99.90
13264;DHT22;6700;51.988;7.646;2022-10-16T05:07:20;12.30;99.90
13264;DHT22;6700;51.988;7.646;2022-10-16T05:09:47;12.30;99.90
13264;DHT22;6700;51.988;7.646;2022-10-16T05:12:14;12.30;99.90
13264;DHT22;6700;51.988;7.646;2022-10-16T05:14:41;12.30;99.90
13264;DHT22;6700;51.988;7.646;2022-10-16T05:17:07;12.30;99.90
13264;DHT22;6700;51.988;7.646;2022-10-16T05:19:34;12.30;99.90
13264;DHT22;6700;51.988;7.646;2022-10-16T05:22:01;12.30;99.90
13264;DHT22;6700;51.988;7.646;2022-10-16T05:24:28;12.30;99.90
13264;DHT22;6700;51.988;7.646;2022-10-16T05:26:55;12.30;99.90
13264;DHT22;6700;51.988;7.646;2022-10-16T05:29:22;12.30;99.90
13264;DHT22;6700;51.988;7.646;2022-10-16T05:31:52;12.30;99.90
13264;DHT22;6700;51.988;7.646;2022-10-16T05:34:20;12.30;99.90
13264;DHT22;6700;51.988;7.646;2022-10-16T05:36:47;12.30;99.90
13264;DHT22;6700;51.988;7.646;2022-10-16T05:39:14;12.40;99.90
13264;DHT22;6700;51.988;7.646;2022-10-16T05:41:42;12.40;99.90
13264;DHT22;6700;51.988;7.646;2022-10-16T05:44:09;12.30;99.90
13264;DHT22;6700;51.988;7.646;2022-10-16T05:46:36;12.30;99.90
13264;DHT22;6700;51.988;7.646;2022-10-16T05:49:03;12.30;99.90
13264;DHT22;6700;51.988;7.646;2022-10-16T05:51:29;12.30;99.90
13264;DHT22;6700;51.988;7.646;2022-10-16T05:53:56;12.30;99.90
13264;DHT22;6700;51.988;7.646;2022-10-16T05:56:23;12.30;99.90
13264;DHT22;6700;51.988;7.646;2022-10-16T05:58:50;12.30;99.90
13264;DHT22;6700;51.988;7.646;2022-10-16T06:01:18;12.30;99.90
13264;DHT22;6700;51.988;7.646;2022-10-16T06:03:47;12.30;99.90
13264;DHT22;6700;51.988;7.646;2022-10-16T06:06:16;12.30;99.90
13264;DHT22;6700;51.988;7.646;2022-10-16T06:08:44;12.30;99.90
13264;DHT22;6700;51.988;7.646;2022-10-16T06:11:17;12.30;99.90
13264;DHT22;6700;51.988;7.646;2022-10-16T06:13:44;12.30;99.90
13264;DHT22;6700;51.988;7.646;2022-10-16T06:16:13;12.30;99.90
13264;DHT22;6700;51.988;7.646;2022-10-16T06:18:40;12.30;99.90
13264;DHT22;6700;51.988;7.646;2022-10-16T06:21:12;12.30;99.90
13264;DHT22;6700;51.988;7.646;2022-10-16T06:23:39;12.30;99.90
13264;DHT22;6700;51.988;7.646;2022-10-16T06:26:11;12.30;99.90
13264;DHT22;6700;51.988;7.646;2022-10-16T06:28:38;12.30;99.90
13264;DHT22;6700;51.988;7.646;2022-10-16T06:31:07;12.30;99.90
13264;DHT22;6700;51.988;7.646;2022-10-16T06:33:35;12.40;99.90
13264;DHT22;6700;51.988;7.646;2022-10-16T06:36:06;12.40;99.90
13264;DHT22;6700;51.988;7.646;2022-10-16T06:38:33;12.50;99.90
13264;DHT22;6700;51.988;7.646;2022-10-16T06:41:00;12.50;99.90
13264;DHT22;6700;51.988;7.646;2022-10-16T06:43:29;12.50;99.90
13264;DHT22;6700;51.988;7.646;2022-10-16T06:46:00;12.50;99.90
13264;DHT22;6700;51.988;7.646;2022-10-16T06:48:27;12.50;99.90
13264;DHT22;6700;51.988;7.646;2022-10-16T06:53:28;12.60;99.90
13264;DHT22;6700;51.988;7.646;2022-10-16T06:55:55;12.60;99.90
13264;DHT22;6700;51.988;7.646;2022-10-16T06:58:22;12.70;99.90
13264;DHT22;6700;51.988;7.646;2022-10-16T07:00:54;12.70;99.90
13264;DHT22;6700;51.988;7.646;2022-10-16T07:03:21;12.70;99.90
13264;DHT22;6700;51.988;7.646;2022-10-16T07:05:48;12.70;99.90
13264;DHT22;6700;51.988;7.646;2022-10-16T07:08:15;12.80;99.90
13264;DHT22;6700;51.988;7.646;2022-10-16T07:10:42;12.80;99.90
13264;DHT22;6700;51.988;7.646;2022-10-16T07:13:08;12.80;99.90
13264;DHT22;6700;51.988;7.646;2022-10-16T07:15:35;12.90;99.90
13264;DHT22;6700;51.988;7.646;2022-10-16T07:18:02;12.80;99.90
13264;DHT22;6700;51.988;7.646;2022-10-16T07:20:28;12.90;99.90
13264;DHT22;6700;51.988;7.646;2022-10-16T07:22:55;12.90;99.90
13264;DHT22;6700;51.988;7.646;2022-10-16T07:25:22;12.80;99.90
13264;DHT22;6700;51.988;7.646;2022-10-16T07:27:49;12.80;99.90
13264;DHT22;6700;51.988;7.646;2022-10-16T07:30:16;12.80;99.90
13264;DHT22;6700;51.988;7.646;2022-10-16T07:32:42;12.80;99.90
13264;DHT22;6700;51.988;7.646;2022-10-16T07:35:09;12.80;99.90
13264;DHT22;6700;51.988;7.646;2022-10-16T07:37:36;12.80;99.90
13264;DHT22;6700;51.988;7.646;2022-10-16T07:40:03;12.80;99.90
13264;DHT22;6700;51.988;7.646;2022-10-16T07:42:30;12.90;99.90
13264;DHT22;6700;51.988;7.646;2022-10-16T07:44:57;13.00;99.90
13264;DHT22;6700;51.988;7.646;2022-10-16T07:47:23;13.10;99.90
13264;DHT22;6700;51.988;7.646;2022-10-16T07:49:51;13.20;99.90
13264;DHT22;6700;51.988;7.646;2022-10-16T07:52:17;13.30;99.90
13264;DHT22;6700;51.988;7.646;2022-10-16T07:54:44;13.30;99.90
13264;DHT22;6700;51.988;7.646;2022-10-16T07:57:11;13.40;99.90
13264;DHT22;6700;51.988;7.646;2022-10-16T07:59:38;13.50;99.90
13264;DHT22;6700;51.988;7.646;2022-10-16T08:02:05;13.60;99.90
13264;DHT22;6700;51.988;7.646;2022-10-16T08:04:32;13.70;99.90
13264;DHT22;6700;51.988;7.646;2022-10-16T08:06:58;13.80;99.90
13264;DHT22;6700;51.988;7.646;2022-10-16T08:09:25;13.90;99.90
13264;DHT22;6700;51.988;7.646;2022-10-16T08:11:52;13.90;99.90
13264;DHT22;6700;51.988;7.646;2022-10-16T08:14:19;14.00;99.90
13264;DHT22;6700;51.988;7.646;2022-10-16T08:16:45;14.10;99.90
13264;DHT22;6700;51.988;7.646;2022-10-16T08:19:12;14.10;99.90
13264;DHT22;6700;51.988;7.646;2022-10-16T08:21:39;14.20;99.90
13264;DHT22;6700;51.988;7.646;2022-10-16T08:24:06;14.30;99.90
13264;DHT22;6700;51.988;7.646;2022-10-16T08:26:33;14.30;99.90
13264;DHT22;6700;51.988;7.646;2022-10-16T08:28:59;14.50;99.90
13264;DHT22;6700;51.988;7.646;2022-10-16T08:31:26;14.50;99.90
13264;DHT22;6700;51.988;7.646;2022-10-16T08:33:53;14.60;99.90
13264;DHT22;6700;51.988;7.646;2022-10-16T08:36:20;14.60;99.90
13264;DHT22;6700;51.988;7.646;2022-10-16T08:38:48;14.70;99.90
13264;DHT22;6700;51.988;7.646;2022-10-16T08:41:46;14.80;99.90
13264;DHT22;6700;51.988;7.646;2022-10-16T08:47:17;15.00;99.90
13264;DHT22;6700;51.988;7.646;2022-10-16T08:49:55;15.10;99.90
13264;DHT22;6700;51.988;7.646;2022-10-16T08:52:28;15.10;99.90
13264;DHT22;6700;51.988;7.646;2022-10-16T08:54:55;15.20;99.90
13264;DHT22;6700;51.988;7.646;2022-10-16T08:57:25;15.30;99.90
13264;DHT22;6700;51.988;7.646;2022-10-16T08:59:53;15.30;99.90
13264;DHT22;6700;51.988;7.646;2022-10-16T09:02:31;15.30;99.90
13264;DHT22;6700;51.988;7.646;2022-10-16T09:05:02;15.40;99.90
13264;DHT22;6700;51.988;7.646;2022-10-16T09:16:22;15.70;99.90
13264;DHT22;6700;51.988;7.646;2022-10-16T09:21:47;16.00;99.90
13264;DHT22;6700;51.988;7.646;2022-10-16T09:24:20;16.00;99.90
13264;DHT22;6700;51.988;7.646;2022-10-16T09:26:52;16.00;99.90
13264;DHT22;6700;51.988;7.646;2022-10-16T09:29:21;16.10;99.90
13264;DHT22;6700;51.988;7.646;2022-10-16T09:31:48;16.20;99.90
13264;DHT22;6700;51.988;7.646;2022-10-16T09:34:26;16.30;99.90
13264;DHT22;6700;51.988;7.646;2022-10-16T09:36:56;16.30;99.90
13264;DHT22;6700;51.988;7.646;2022-10-16T09:39:23;16.40;99.90
13264;DHT22;6700;51.988;7.646;2022-10-16T09:41:51;16.50;99.90
13264;DHT22;6700;51.988;7.646;2022-10-16T09:44:26;16.50;99.90
13264;DHT22;6700;51.988;7.646;2022-10-16T09:47:15;16.50;99.90
13264;DHT22;6700;51.988;7.646;2022-10-16T09:50:01;16.50;99.90
13264;DHT22;6700;51.988;7.646;2022-10-16T09:52:29;16.60;99.90
13264;DHT22;6700;51.988;7.646;2022-10-16T09:55:02;16.60;99.90
13264;DHT22;6700;51.988;7.646;2022-10-16T09:57:29;16.60;99.90
13264;DHT22;6700;51.988;7.646;2022-10-16T09:59:58;16.70;99.90
13264;DHT22;6700;51.988;7.646;2022-10-16T10:02:35;16.80;99.90
13264;DHT22;6700;51.988;7.646;2022-10-16T10:05:05;17.00;99.90
13264;DHT22;6700;51.988;7.646;2022-10-16T10:07:43;17.10;99.90
13264;DHT22;6700;51.988;7.646;2022-10-16T10:10:29;17.30;99.90
13264;DHT22;6700;51.988;7.646;2022-10-16T10:12:57;17.40;99.90
13264;DHT22;6700;51.988;7.646;2022-10-16T10:15:24;17.50;99.90
13264;DHT22;6700;51.988;7.646;2022-10-16T10:17:54;17.50;99.90
13264;DHT22;6700;51.988;7.646;2022-10-16T10:20:32;17.40;99.90
13264;DHT22;6700;51.988;7.646;2022-10-16T10:23:13;17.20;99.90
13264;DHT22;6700;51.988;7.646;2022-10-16T10:31:20;16.90;99.90
13264;DHT22;6700;51.988;7.646;2022-10-16T10:34:17;16.90;99.90
13264;DHT22;6700;51.988;7.646;2022-10-16T10:36:54;17.00;99.90
13264;DHT22;6700;51.988;7.646;2022-10-16T10:39:41;17.10;99.90
13264;DHT22;6700;51.988;7.646;2022-10-16T10:50:25;17.30;99.90
13264;DHT22;6700;51.988;7.646;2022-10-16T11:01:12;17.60;99.90
13264;DHT22;6700;51.988;7.646;2022-10-16T11:04:05;17.60;99.90
13264;DHT22;6700;51.988;7.646;2022-10-16T11:09:25;17.60;99.90
13264;DHT22;6700;51.988;7.646;2022-10-16T11:12:34;17.60;99.90
13264;DHT22;6700;51.988;7.646;2022-10-16T11:15:14;17.70;99.90
13264;DHT22;6700;51.988;7.646;2022-10-16T11:17:54;17.70;99.90
13264;DHT22;6700;51.988;7.646;2022-10-16T11:20:32;17.70;99.90
13264;DHT22;6700;51.988;7.646;2022-10-16T11:23:16;17.70;99.90
13264;DHT22;6700;51.988;7.646;2022-10-16T11:25:45;17.70;99.90
13264;DHT22;6700;51.988;7.646;2022-10-16T11:28:20;17.70;99.90
13264;DHT22;6700;51.988;7.646;2022-10-16T11:31:10;17.60;99.90
13264;DHT22;6700;51.988;7.646;2022-10-16T11:36:46;17.50;99.90
13264;DHT22;6700;51.988;7.646;2022-10-16T11:39:30;17.60;99.90
13264;DHT22;6700;51.988;7.646;2022-10-16T11:48:27;17.60;99.90
13264;DHT22;6700;51.988;7.646;2022-10-16T11:51:02;17.70;99.90
13264;DHT22;6700;51.988;7.646;2022-10-16T11:56:32;17.40;99.90
13264;DHT22;6700;51.988;7.646;2022-10-16T11:59:51;17.30;99.90
13264;DHT22;6700;51.988;7.646;2022-10-16T12:05:35;17.30;99.90
13264;DHT22;6700;51.988;7.646;2022-10-16T12:08:16;17.40;99.90
13264;DHT22;6700;51.988;7.646;2022-10-16T12:10:45;17.70;99.90
13264;DHT22;6700;51.988;7.646;2022-10-16T12:13:37;17.80;99.90
13264;DHT22;6700;51.988;7.646;2022-10-16T12:18:44;18.10;99.90
13264;DHT22;6700;51.988;7.646;2022-10-16T12:21:16;18.20;99.90
13264;DHT22;6700;51.988;7.646;2022-10-16T12:23:51;18.30;99.90
13264;DHT22;6700;51.988;7.646;2022-10-16T12:26:26;18.30;99.90
13264;DHT22;6700;51.988;7.646;2022-10-16T12:28:54;18.20;99.90
13264;DHT22;6700;51.988;7.646;2022-10-16T12:31:22;18.10;99.90
13264;DHT22;6700;51.988;7.646;2022-10-16T12:34:01;17.90;99.90
13264;DHT22;6700;51.988;7.646;2022-10-16T12:36:33;17.80;99.90
13264;DHT22;6700;51.988;7.646;2022-10-16T12:39:01;17.80;99.90
13264;DHT22;6700;51.988;7.646;2022-10-16T12:41:37;17.70;99.90
13264;DHT22;6700;51.988;7.646;2022-10-16T12:44:23;17.60;99.90
13264;DHT22;6700;51.988;7.646;2022-10-16T12:46:53;17.50;99.90
13264;DHT22;6700;51.988;7.646;2022-10-16T12:49:32;17.40;99.90
13264;DHT22;6700;51.988;7.646;2022-10-16T12:51:59;17.40;99.90
13264;DHT22;6700;51.988;7.646;2022-10-16T12:54:44;17.50;99.90
13264;DHT22;6700;51.988;7.646;2022-10-16T12:57:55;17.50;99.90
13264;DHT22;6700;51.988;7.646;2022-10-16T13:00:45;17.60;99.90
13264;DHT22;6700;51.988;7.646;2022-10-16T13:03:45;17.70;99.90
13264;DHT22;6700;51.988;7.646;2022-10-16T13:06:30;17.60;99.90
13264;DHT22;6700;51.988;7.646;2022-10-16T13:12:18;17.60;99.90
13264;DHT22;6700;51.988;7.646;2022-10-16T13:15:27;17.60;99.90
13264;DHT22;6700;51.988;7.646;2022-10-16T13:23:46;17.70;99.90
13264;DHT22;6700;51.988;7.646;2022-10-16T13:26:23;17.70;99.90
13264;DHT22;6700;51.988;7.646;2022-10-16T13:29:05;17.60;99.90
13264;DHT22;6700;51.988;7.646;2022-10-16T13:31:33;17.60;99.90
13264;DHT22;6700;51.988;7.646;2022-10-16T13:34:00;17.50;99.90
13264;DHT22;6700;51.988;7.646;2022-10-16T13:36:30;17.50;99.90
13264;DHT22;6700;51.988;7.646;2022-10-16T13:39:12;17.50;99.90
13264;DHT22;6700;51.988;7.646;2022-10-16T13:41:39;17.50;99.90
13264;DHT22;6700;51.988;7.646;2022-10-16T13:44:14;17.50;99.90
13264;DHT22;6700;51.988;7.646;2022-10-16T13:46:42;17.50;99.90
13264;DHT22;6700;51.988;7.646;2022-10-16T13:49:15;17.40;99.90
13264;DHT22;6700;51.988;7.646;2022-10-16T13:51:54;17.50;99.90
13264;DHT22;6700;51.988;7.646;2022-10-16T13:54:21;17.40;99.90
13264;DHT22;6700;51.988;7.646;2022-10-16T13:56:48;17.40;99.90
13264;DHT22;6700;51.988;7.646;2022-10-16T13:59:36;17.50;99.90
13264;DHT22;6700;51.988;7.646;2022-10-16T14:02:15;17.50;99.90
13264;DHT22;6700;51.988;7.646;2022-10-16T14:04:44;17.50;99.90
13264;DHT22;6700;51.988;7.646;2022-10-16T14:07:15;17.40;99.90
13264;DHT22;6700;51.988;7.646;2022-10-16T14:09:49;17.50;99.90
13264;DHT22;6700;51.988;7.646;2022-10-16T14:12:17;17.40;99.90
13264;DHT22;6700;51.988;7.646;2022-10-16T14:14:47;17.40;99.90
13264;DHT22;6700;51.988;7.646;2022-10-16T14:17:29;17.40;99.90
13264;DHT22;6700;51.988;7.646;2022-10-16T14:19:59;17.30;99.90
13264;DHT22;6700;51.988;7.646;2022-10-16T14:22:36;17.30;99.90
13264;DHT22;6700;51.988;7.646;2022-10-16T14:27:56;17.20;99.90
13264;DHT22;6700;51.988;7.646;2022-10-16T14:30:23;17.20;99.90
13264;DHT22;6700;51.988;7.646;2022-10-16T14:32:55;17.10;99.90
13264;DHT22;6700;51.988;7.646;2022-10-16T14:35:36;17.10;99.90
13264;DHT22;6700;51.988;7.646;2022-10-16T14:38:05;17.00;99.90
13264;DHT22;6700;51.988;7.646;2022-10-16T14:40:36;16.90;99.90
13264;DHT22;6700;51.988;7.646;2022-10-16T14:43:04;16.80;99.90
13264;DHT22;6700;51.988;7.646;2022-10-16T14:45:33;16.80;99.90
13264;DHT22;6700;51.988;7.646;2022-10-16T14:48:04;16.80;99.90
13264;DHT22;6700;51.988;7.646;2022-10-16T14:50:32;16.80;99.90
13264;DHT22;6700;51.988;7.646;2022-10-16T14:52:59;16.80;99.90
13264;DHT22;6700;51.988;7.646;2022-10-16T14:55:26;16.90;99.90
13264;DHT22;6700;51.988;7.646;2022-10-16T14:57:53;16.80;99.90
13264;DHT22;6700;51.988;7.646;2022-10-16T15:00:26;16.70;99.90
13264;DHT22;6700;51.988;7.646;2022-10-16T15:02:54;16.70;99.90
13264;DHT22;6700;51.988;7.646;2022-10-16T15:05:23;16.60;99.90
13264;DHT22;6700;51.988;7.646;2022-10-16T15:07:53;16.50;99.90
13264;DHT22;6700;51.988;7.646;2022-10-16T15:10:22;16.50;99.90
13264;DHT22;6700;51.988;7.646;2022-10-16T15:12:49;16.40;99.90
13264;DHT22;6700;51.988;7.646;2022-10-16T15:17:54;16.30;99.90
13264;DHT22;6700;51.988;7.646;2022-10-16T15:20:34;16.30;99.90
13264;DHT22;6700;51.988;7.646;2022-10-16T15:23:03;16.30;99.90
13264;DHT22;6700;51.988;7.646;2022-10-16T15:25:52;16.30;99.90
13264;DHT22;6700;51.988;7.646;2022-10-16T15:28:20;16.30;99.90
13264;DHT22;6700;51.988;7.646;2022-10-16T15:30:50;16.30;99.90
13264;DHT22;6700;51.988;7.646;2022-10-16T15:33:26;16.30;99.90
13264;DHT22;6700;51.988;7.646;2022-10-16T15:35:55;16.30;99.90
13264;DHT22;6700;51.988;7.646;2022-10-16T15:38:22;16.20;99.90
13264;DHT22;6700;51.988;7.646;2022-10-16T15:40:49;16.20;99.90
13264;DHT22;6700;51.988;7.646;2022-10-16T15:43:17;16.10;99.90
13264;DHT22;6700;51.988;7.646;2022-10-16T15:46:03;16.10;99.90
13264;DHT22;6700;51.988;7.646;2022-10-16T15:48:32;16.10;99.90
13264;DHT22;6700;51.988;7.646;2022-10-16T15:51:00;16.00;99.90
13264;DHT22;6700;51.988;7.646;2022-10-16T15:53:30;16.00;99.90
13264;DHT22;6700;51.988;7.646;2022-10-16T15:55:57;15.90;99.90
13264;DHT22;6700;51.988;7.646;2022-10-16T15:58:24;15.90;99.90
13264;DHT22;6700;51.988;7.646;2022-10-16T16:00:55;15.90;99.90
13264;DHT22;6700;51.988;7.646;2022-10-16T16:03:22;15.80;99.90
13264;DHT22;6700;51.988;7.646;2022-10-16T16:05:49;15.80;99.90
13264;DHT22;6700;51.988;7.646;2022-10-16T16:08:16;15.80;99.90
13264;DHT22;6700;51.988;7.646;2022-10-16T16:10:43;15.80;99.90
13264;DHT22;6700;51.988;7.646;2022-10-16T16:13:10;15.70;99.90
13264;DHT22;6700;51.988;7.646;2022-10-16T16:15:40;15.70;99.90
13264;DHT22;6700;51.988;7.646;2022-10-16T16:18:07;15.70;99.90
13264;DHT22;6700;51.988;7.646;2022-10-16T16:20:36;15.60;99.90
13264;DHT22;6700;51.988;7.646;2022-10-16T16:23:03;15.60;99.90
13264;DHT22;6700;51.988;7.646;2022-10-16T16:25:29;15.60;99.90
13264;DHT22;6700;51.988;7.646;2022-10-16T16:27:57;15.50;99.90
13264;DHT22;6700;51.988;7.646;2022-10-16T16:30:23;15.50;99.90
13264;DHT22;6700;51.988;7.646;2022-10-16T16:32:54;15.50;99.90
13264;DHT22;6700;51.988;7.646;2022-10-16T16:35:20;15.40;99.90
13264;DHT22;6700;51.988;7.646;2022-10-16T16:37:50;15.40;99.90
13264;DHT22;6700;51.988;7.646;2022-10-16T16:40:17;15.30;99.90
13264;DHT22;6700;51.988;7.646;2022-10-16T16:42:54;15.30;99.90
13264;DHT22;6700;51.988;7.646;2022-10-16T16:45:23;15.20;99.90
13264;DHT22;6700;51.988;7.646;2022-10-16T16:47:54;15.10;99.90
13264;DHT22;6700;51.988;7.646;2022-10-16T16:50:21;15.10;99.90
13264;DHT22;6700;51.988;7.646;2022-10-16T16:52:48;15.00;99.90
13264;DHT22;6700;51.988;7.646;2022-10-16T16:55:15;14.90;99.90
13264;DHT22;6700;51.988;7.646;2022-10-16T16:57:41;14.80;99.90
13264;DHT22;6700;51.988;7.646;2022-10-16T17:00:09;14.70;99.90
13264;DHT22;6700;51.988;7.646;2022-10-16T17:02:36;14.70;99.90
13264;DHT22;6700;51.988;7.646;2022-10-16T17:05:03;14.70;99.90
13264;DHT22;6700;51.988;7.646;2022-10-16T17:07:31;14.60;99.90
13264;DHT22;6700;51.988;7.646;2022-10-16T17:10:00;14.50;99.90
13264;DHT22;6700;51.988;7.646;2022-10-16T17:12:29;14.50;99.90
13264;DHT22;6700;51.988;7.646;2022-10-16T17:14:56;14.50;99.90
13264;DHT22;6700;51.988;7.646;2022-10-16T17:17:23;14.40;99.90
13264;DHT22;6700;51.988;7.646;2022-10-16T17:19:50;14.40;99.90
13264;DHT22;6700;51.988;7.646;2022-10-16T17:22:18;14.40;99.90
13264;DHT22;6700;51.988;7.646;2022-10-16T17:24:48;14.40;99.90
13264;DHT22;6700;51.988;7.646;2022-10-16T17:27:18;14.30;99.90
13264;DHT22;6700;51.988;7.646;2022-10-16T17:29:49;14.30;99.90
13264;DHT22;6700;51.988;7.646;2022-10-16T17:32:15;14.30;99.90
13264;DHT22;6700;51.988;7.646;2022-10-16T17:34:42;14.20;99.90
13264;DHT22;6700;51.988;7.646;2022-10-16T17:37:09;14.30;99.90
13264;DHT22;6700;51.988;7.646;2022-10-16T17:39:42;14.20;99.90
13264;DHT22;6700;51.988;7.646;2022-10-16T17:42:09;14.20;99.90